createdAt,value
2023-02-11T00:01:30.420Z,102317.34
2023-02-11T00:03:28.861Z,102292.34
2023-02-11T00:05:24.407Z,102295.72
2023-02-11T00:07:19.757Z,102301.84
2023-02-11T00:09:16.629Z,102279.13
2023-02-11T00:11:16.519Z,102306.81
2023-02-11T00:13:12.160Z,102299.03
2023-02-11T00:15:08.222Z,102288.63
2023-02-11T00:17:03.900Z,102297.19
2023-02-11T00:19:03.021Z,102305.91
2023-02-11T00:20:59.537Z,102315.41
2023-02-11T00:22:59.077Z,102305.03
2023-02-11T00:24:57.130Z,102319.69
2023-02-11T00:26:53.020Z,102324.91
2023-02-11T00:28:50.167Z,102329.22
2023-02-11T00:30:45.498Z,102329.22
2023-02-11T00:32:42.723Z,102323.09
2023-02-11T00:34:41.066Z,102311.91
2023-02-11T00:36:36.708Z,102304.94
2023-02-11T00:38:32.141Z,102303.19
2023-02-11T00:40:27.707Z,102295.50
2023-02-11T00:42:23.076Z,102297.09
2023-02-11T00:44:19.631Z,102295.34
2023-02-11T00:46:15.850Z,102291.09
2023-02-11T00:48:12.056Z,102291.13
2023-02-11T00:50:10.234Z,102279.09
2023-02-11T00:52:05.383Z,102284.22
2023-02-11T00:54:00.788Z,102287.63
2023-02-11T00:55:55.817Z,102296.31
2023-02-11T00:57:51.188Z,102304.84
2023-02-11T00:59:46.162Z,102296.94
2023-02-11T01:01:41.497Z,102301.16
2023-02-11T01:03:37.157Z,102300.38
2023-02-11T01:05:35.515Z,102287.44
2023-02-11T01:07:31.485Z,102295.34
2023-02-11T01:09:26.738Z,102292.94
2023-02-11T01:11:23.791Z,102300.72
2023-02-11T01:13:19.376Z,102292.13
2023-02-11T01:15:16.495Z,102274.91
2023-02-11T01:17:11.511Z,102281.03
2023-02-11T01:19:06.786Z,102268.09
2023-02-11T01:21:04.354Z,102249.00
2023-02-11T01:22:59.349Z,102249.00
2023-02-11T01:24:54.614Z,102243.84
2023-02-11T01:26:49.545Z,102231.63
2023-02-11T01:28:44.941Z,102227.28
2023-02-11T01:30:39.989Z,102223.78
2023-02-11T01:32:35.073Z,102214.19
2023-02-11T01:34:30.359Z,102227.28
2023-02-11T01:36:27.892Z,102224.69
2023-02-11T01:38:25.125Z,102234.22
2023-02-11T01:40:20.870Z,102218.34
2023-02-11T01:42:18.861Z,102233.84
2023-02-11T01:44:30.812Z,102234.91
2023-02-11T01:46:37.060Z,102225.28
2023-02-11T01:48:36.109Z,102216.41
2023-02-11T01:50:31.445Z,102213.13
2023-02-11T01:52:34.297Z,102219.28
2023-02-11T01:54:45.198Z,102217.44
2023-02-11T01:56:57.505Z,102206.13
2023-02-11T01:58:54.585Z,102209.41
2023-02-11T02:00:50.345Z,102207.72
2023-02-11T02:02:51.869Z,102212.00
2023-02-11T02:04:52.355Z,102213.66
2023-02-11T02:06:53.736Z,102213.47
2023-02-11T02:08:57.932Z,102205.50
2023-02-11T02:10:56.616Z,102194.25
2023-02-11T02:12:51.938Z,102187.25
2023-02-11T02:14:46.860Z,102199.41
2023-02-11T02:16:42.342Z,102184.56
2023-02-11T02:18:46.144Z,102184.41
2023-02-11T02:21:10.968Z,102164.31
2023-02-11T02:23:41.273Z,102177.16
2023-02-11T02:26:33.064Z,102186.59
2023-02-11T02:28:54.626Z,102183.94
2023-02-11T02:31:07.560Z,102184.72
2023-02-11T02:33:27.133Z,102178.59
2023-02-11T02:35:37.701Z,102177.59
2023-02-11T02:37:39.385Z,102177.53
2023-02-11T02:39:38.489Z,102177.59
2023-02-11T02:41:37.263Z,102175.78
2023-02-11T02:43:34.037Z,102167.06
2023-02-11T02:45:29.501Z,102159.19
2023-02-11T02:47:25.178Z,102161.66
2023-02-11T02:49:22.669Z,102153.03
2023-02-11T02:51:35.672Z,102152.94
2023-02-11T02:53:37.962Z,102152.91
2023-02-11T02:55:47.240Z,102152.81
2023-02-11T02:57:59.288Z,102157.94
2023-02-11T03:00:09.970Z,102157.97
2023-02-11T03:02:16.517Z,102152.81
2023-02-11T03:04:20.178Z,102154.50
2023-02-11T03:06:23.174Z,102148.22
2023-02-11T03:08:26.977Z,102135.31
2023-02-11T03:10:26.645Z,102132.78
2023-02-11T03:12:24.243Z,102131.97
2023-02-11T03:14:22.020Z,102128.28
2023-02-11T03:16:20.571Z,102123.88
2023-02-11T03:18:18.627Z,102137.03
2023-02-11T03:20:17.300Z,102128.47
2023-02-11T03:22:22.850Z,102129.16
2023-02-11T03:24:23.365Z,102146.66
2023-02-11T03:26:26.060Z,102130.28
2023-02-11T03:28:30.603Z,102128.53
2023-02-11T03:30:31.287Z,102130.38
2023-02-11T03:32:31.495Z,102141.69
2023-02-11T03:34:32.388Z,102129.50
2023-02-11T03:36:34.903Z,102143.44
2023-02-11T03:38:36.928Z,102146.81
2023-02-11T03:40:38.049Z,102135.41
2023-02-11T03:42:38.414Z,102137.88
2023-02-11T03:44:39.336Z,102137.88
2023-02-11T03:46:40.112Z,102144.97
2023-02-11T03:48:41.578Z,102143.00
2023-02-11T03:50:38.890Z,102139.44
2023-02-11T03:52:35.475Z,102137.69
2023-02-11T03:54:34.329Z,102142.09
2023-02-11T03:56:35.408Z,102138.59
2023-02-11T03:58:30.436Z,102137.63
2023-02-11T04:00:33.135Z,102128.16
2023-02-11T04:02:31.705Z,102134.16
2023-02-11T04:04:27.204Z,102134.16
2023-02-11T04:06:22.345Z,102118.63
2023-02-11T04:08:17.660Z,102121.09
2023-02-11T04:10:15.593Z,102120.22
2023-02-11T04:12:10.858Z,102132.41
2023-02-11T04:14:06.209Z,102128.00
2023-02-11T04:16:01.293Z,102125.38
2023-02-11T04:17:53.948Z,102126.03
2023-02-11T04:19:48.853Z,102127.75
2023-02-11T04:21:43.764Z,102135.28
2023-02-11T04:23:39.114Z,102130.88
2023-02-11T04:25:36.616Z,102133.56
2023-02-11T04:27:31.941Z,102129.19
2023-02-11T04:29:28.208Z,102124.69
2023-02-11T04:31:23.578Z,102120.28
2023-02-11T04:33:18.601Z,102131.47
2023-02-11T04:35:13.902Z,102128.75
2023-02-11T04:37:09.254Z,102126.91
2023-02-11T04:39:04.339Z,102121.56
2023-02-11T04:41:03.274Z,102108.53
2023-02-11T04:42:58.182Z,102113.53
2023-02-11T04:44:53.542Z,102109.91
2023-02-11T04:46:48.496Z,102112.47
2023-02-11T04:48:44.099Z,102110.06
2023-02-11T04:50:39.341Z,102113.44
2023-02-11T04:52:34.901Z,102110.00
2023-02-11T04:54:29.949Z,102106.41
2023-02-11T04:56:27.819Z,102101.13
2023-02-11T04:58:23.088Z,102108.09
2023-02-11T05:00:19.469Z,102104.53
2023-02-11T05:02:14.395Z,102095.78
2023-02-11T05:04:09.704Z,102095.75
2023-02-11T05:06:05.520Z,102085.31
2023-02-11T05:08:00.781Z,102079.81
2023-02-11T05:09:55.706Z,102072.78
2023-02-11T05:11:53.689Z,102069.31
2023-02-11T05:13:49.664Z,102077.00
2023-02-11T05:15:44.929Z,102069.19
2023-02-11T05:17:40.034Z,102072.59
2023-02-11T05:19:35.551Z,102074.41
2023-02-11T05:21:30.487Z,102058.75
2023-02-11T05:23:25.390Z,102056.16
2023-02-11T05:25:20.894Z,102069.25
2023-02-11T05:27:18.486Z,102050.28
2023-02-11T05:29:13.868Z,102057.16
2023-02-11T05:31:09.351Z,102058.09
2023-02-11T05:33:04.332Z,102046.72
2023-02-11T05:34:59.557Z,102042.28
2023-02-11T05:36:54.608Z,102048.31
2023-02-11T05:38:50.947Z,102048.41
2023-02-11T05:40:46.287Z,102046.72
2023-02-11T05:42:44.275Z,102041.22
2023-02-11T05:44:39.536Z,102040.41
2023-02-11T05:46:34.880Z,102047.41
2023-02-11T05:48:29.997Z,102046.53
2023-02-11T05:50:25.923Z,102037.78
2023-02-11T05:52:20.906Z,102047.22
2023-02-11T05:54:16.340Z,102032.28
2023-02-11T05:56:11.638Z,102022.78
2023-02-11T05:58:10.638Z,102035.72
2023-02-11T06:00:06.264Z,102041.81
2023-02-11T06:02:02.065Z,102056.03
2023-02-11T06:03:57.104Z,102049.13
2023-02-11T06:05:52.616Z,102043.63
2023-02-11T06:07:47.888Z,102047.16
2023-02-11T06:09:43.404Z,102043.63
2023-02-11T06:11:38.306Z,102035.81
2023-02-11T06:13:36.218Z,102042.72
2023-02-11T06:15:31.229Z,102053.97
2023-02-11T06:17:26.637Z,102062.53
2023-02-11T06:19:21.649Z,102065.13
2023-02-11T06:21:16.988Z,102061.66
2023-02-11T06:23:11.966Z,102052.16
2023-02-11T06:25:07.955Z,102053.97
2023-02-11T06:27:03.035Z,102053.06
2023-02-11T06:29:02.523Z,102062.53
2023-02-11T06:30:57.779Z,102056.25
2023-02-11T06:32:52.850Z,102057.13
2023-02-11T06:34:48.283Z,102061.41
2023-02-11T06:36:44.036Z,102070.22
2023-02-11T06:38:39.352Z,102054.41
2023-02-11T06:40:34.244Z,102056.19
2023-02-11T06:42:29.596Z,102045.53
2023-02-11T06:44:27.373Z,102047.22
2023-02-11T06:46:22.338Z,102051.47
2023-02-11T06:48:17.569Z,102047.31
2023-02-11T06:50:16.694Z,102060.50
2023-02-11T06:52:11.953Z,102044.75
2023-02-11T06:54:08.663Z,102049.22
2023-02-11T06:56:06.115Z,102050.91
2023-02-11T06:58:01.389Z,102031.72
2023-02-11T06:59:59.567Z,102031.66
2023-02-11T07:01:55.159Z,102035.75
2023-02-11T07:03:50.809Z,102059.16
2023-02-11T07:05:46.131Z,102043.66
2023-02-11T07:07:41.399Z,102054.00
2023-02-11T07:09:37.333Z,102057.41
2023-02-11T07:11:33.047Z,102042.44
2023-02-11T07:13:28.700Z,102059.78
2023-02-11T07:15:26.477Z,102050.22
2023-02-11T07:17:22.065Z,102041.53
2023-02-11T07:19:17.267Z,102029.13
2023-02-11T07:21:15.121Z,102035.19
2023-02-11T07:23:10.530Z,102028.16
2023-02-11T07:25:08.305Z,102026.31
2023-02-11T07:27:03.647Z,102021.94
2023-02-11T07:28:59.280Z,102023.50
2023-02-11T07:30:57.421Z,102025.25
2023-02-11T07:32:52.706Z,102031.03
2023-02-11T07:34:48.675Z,102022.28
2023-02-11T07:36:43.737Z,102036.19
2023-02-11T07:38:39.737Z,102033.50
2023-02-11T07:40:34.708Z,102022.91
2023-02-11T07:42:29.627Z,102005.34
2023-02-11T07:44:25.342Z,102015.69
2023-02-11T07:46:25.296Z,102007.03
2023-02-11T07:48:20.599Z,102009.50
2023-02-11T07:50:15.492Z,102037.22
2023-02-11T07:52:10.753Z,102012.69
2023-02-11T07:54:05.717Z,102013.44
2023-02-11T07:56:01.050Z,102012.28
2023-02-11T07:57:56.029Z,102025.28
2023-02-11T07:59:50.923Z,102013.16
2023-02-11T08:01:51.425Z,102024.34
2023-02-11T08:03:46.645Z,102016.47
2023-02-11T08:05:42.257Z,102017.91
2023-02-11T08:07:37.558Z,102021.44
2023-02-11T08:09:34.497Z,102019.69
2023-02-11T08:11:31.224Z,102021.38
2023-02-11T08:13:26.992Z,102014.47
2023-02-11T08:15:21.950Z,102025.69
2023-02-11T08:17:19.846Z,102034.22
2023-02-11T08:19:16.630Z,102054.09
2023-02-11T08:21:15.762Z,102050.34
2023-02-11T08:23:11.028Z,102050.25
2023-02-11T08:25:06.075Z,102066.03
2023-02-11T08:27:01.305Z,102063.09
2023-02-11T08:28:58.760Z,102063.50
2023-02-11T08:30:54.056Z,102068.50
2023-02-11T08:32:51.719Z,102060.69
2023-02-11T08:34:48.659Z,102056.22
2023-02-11T08:36:45.274Z,102057.81
2023-02-11T08:38:40.969Z,102056.06
2023-02-11T08:40:36.110Z,102074.34
2023-02-11T08:42:31.078Z,102075.94
2023-02-11T08:44:27.156Z,102062.06
2023-02-11T08:46:22.893Z,102070.81
2023-02-11T08:48:20.808Z,102055.97
2023-02-11T08:50:15.801Z,102061.97
2023-02-11T08:52:11.543Z,102073.28
2023-02-11T08:54:10.155Z,102076.03
2023-02-11T08:56:06.189Z,102054.91
2023-02-11T08:58:01.135Z,102048.75
2023-02-11T08:59:56.453Z,102038.38
2023-02-11T09:01:51.842Z,102040.13
2023-02-11T09:03:49.948Z,102027.78
2023-02-11T09:05:45.707Z,102037.25
2023-02-11T09:07:40.944Z,102039.44
2023-02-11T09:09:36.442Z,102034.31
2023-02-11T09:11:35.992Z,102040.69
2023-02-11T09:13:32.890Z,102037.69
2023-02-11T09:15:27.882Z,102037.53
2023-02-11T09:17:23.175Z,102042.81
2023-02-11T09:19:21.516Z,102046.53
2023-02-11T09:21:18.924Z,102055.28
2023-02-11T09:23:15.549Z,102044.00
2023-02-11T09:25:12.513Z,102048.22
2023-02-11T09:27:08.640Z,102055.91
2023-02-11T09:29:04.382Z,102053.22
2023-02-11T09:30:59.837Z,102059.31
2023-02-11T09:32:55.208Z,102071.50
2023-02-11T09:34:53.453Z,102061.75
2023-02-11T09:36:48.433Z,102055.66
2023-02-11T09:38:44.032Z,102056.59
2023-02-11T09:40:42.535Z,102067.59
2023-02-11T09:42:46.584Z,102070.38
2023-02-11T09:44:47.010Z,102066.66
2023-02-11T09:46:45.745Z,102088.34
2023-02-11T09:48:44.582Z,102077.03
2023-02-11T09:50:46.234Z,102069.19
2023-02-11T09:52:47.300Z,102072.44
2023-02-11T09:54:55.508Z,102098.31
2023-02-11T09:56:50.481Z,102085.19
2023-02-11T09:58:47.522Z,102088.41
2023-02-11T10:00:48.120Z,102082.25
2023-02-11T10:03:09.207Z,102083.78
2023-02-11T10:05:22.141Z,102102.84
2023-02-11T10:07:27.956Z,102104.63
2023-02-11T10:09:39.774Z,102103.63
2023-02-11T10:11:44.549Z,102096.63
2023-02-11T10:13:50.366Z,102099.25
2023-02-11T10:15:53.490Z,102100.84
2023-02-11T10:18:10.034Z,102106.00
2023-02-11T10:20:23.651Z,102101.53
2023-02-11T10:22:25.905Z,102103.31
2023-02-11T10:24:22.159Z,102097.00
2023-02-11T10:26:20.190Z,102099.69
2023-02-11T10:28:18.753Z,102106.69
2023-02-11T10:30:25.158Z,102117.84
2023-02-11T10:32:32.222Z,102105.19
2023-02-11T10:34:27.794Z,102115.53
2023-02-11T10:36:32.600Z,102117.44
2023-02-11T10:38:30.816Z,102107.78
2023-02-11T10:40:28.134Z,102103.31
2023-02-11T10:42:23.829Z,102101.69
2023-02-11T10:44:30.270Z,102103.38
2023-02-11T10:46:29.503Z,102081.53
2023-02-11T10:48:43.867Z,102081.47
2023-02-11T10:50:39.709Z,102091.31
2023-02-11T10:52:34.863Z,102072.00
2023-02-11T10:54:32.758Z,102075.31
2023-02-11T10:56:30.836Z,102081.38
2023-02-11T10:58:29.253Z,102094.56
2023-02-11T11:00:41.572Z,102111.00
2023-02-11T11:02:44.107Z,102100.53
2023-02-11T11:04:45.749Z,102095.22
2023-02-11T11:06:40.784Z,102086.38
2023-02-11T11:08:44.564Z,102082.13
2023-02-11T11:10:46.965Z,102070.84
2023-02-11T11:12:51.170Z,102066.38
2023-02-11T11:14:57.200Z,102072.69
2023-02-11T11:16:56.280Z,102073.78
2023-02-11T11:18:53.417Z,102078.09
2023-02-11T11:21:00.092Z,102067.53
2023-02-11T11:23:10.749Z,102067.47
2023-02-11T11:25:06.181Z,102070.84
2023-02-11T11:27:05.461Z,102070.00
2023-02-11T11:29:05.194Z,102054.28
2023-02-11T11:31:02.182Z,102058.69
2023-02-11T11:32:57.920Z,102055.16
2023-02-11T11:34:55.679Z,102074.28
2023-02-11T11:36:52.334Z,102075.97
2023-02-11T11:38:55.136Z,102069.06
2023-02-11T11:41:20.911Z,102080.38
2023-02-11T11:43:23.862Z,102092.28
2023-02-11T11:45:28.716Z,102083.28
2023-02-11T11:47:30.979Z,102082.50
2023-02-11T11:49:32.629Z,102078.31
2023-02-11T11:51:29.034Z,102085.22
2023-02-11T11:53:34.369Z,102071.22
2023-02-11T11:55:35.947Z,102086.06
2023-02-11T11:57:32.210Z,102076.28
2023-02-11T11:59:31.284Z,102087.56
2023-02-11T12:01:38.855Z,102076.19
2023-02-11T12:04:17.349Z,102088.16
2023-02-11T12:06:29.369Z,102066.31
2023-02-11T12:08:30.623Z,102071.53
2023-02-11T12:10:59.821Z,102077.56
2023-02-11T12:13:08.564Z,102075.94
2023-02-11T12:15:20.664Z,102074.84
2023-02-11T12:17:32.589Z,102071.31
2023-02-11T12:19:56.376Z,102069.56
2023-02-11T12:21:59.175Z,102065.09
2023-02-11T12:24:09.178Z,102071.25
2023-02-11T12:26:14.153Z,102066.59
2023-02-11T12:28:22.158Z,102062.19
2023-02-11T12:30:35.423Z,102069.91
2023-02-11T12:32:39.309Z,102066.19
2023-02-11T12:34:58.457Z,102067.97
2023-02-11T12:37:03.173Z,102055.56
2023-02-11T12:39:10.325Z,102064.25
2023-02-11T12:41:41.945Z,102050.16
2023-02-11T12:43:37.303Z,102049.06
2023-02-11T12:45:47.528Z,102051.50
2023-02-11T12:47:53.831Z,102051.50
2023-02-11T12:50:04.729Z,102049.66
2023-02-11T12:52:26.293Z,102060.88
2023-02-11T12:54:28.356Z,102056.41
2023-02-11T12:56:31.130Z,102055.41
2023-02-11T12:58:44.546Z,102062.50
2023-02-11T13:00:52.148Z,102055.47
2023-02-11T13:02:54.517Z,102062.25
2023-02-11T13:04:57.341Z,102075.34
2023-02-11T13:07:02.355Z,102075.25
2023-02-11T13:09:07.219Z,102055.91
2023-02-11T13:11:07.952Z,102073.38
2023-02-11T13:13:21.564Z,102066.38
2023-02-11T13:15:19.378Z,102086.06
2023-02-11T13:17:24.421Z,102084.53
2023-02-11T13:19:31.812Z,102085.28
2023-02-11T13:21:37.329Z,102070.41
2023-02-11T13:23:40.493Z,102067.97
2023-02-11T13:25:43.603Z,102071.50
2023-02-11T13:27:50.595Z,102091.69
2023-02-11T13:30:23.242Z,102103.03
2023-02-11T13:32:23.817Z,102105.72
2023-02-11T13:34:40.957Z,102114.16
2023-02-11T13:36:38.267Z,102113.25
2023-02-11T13:38:37.357Z,102115.94
2023-02-11T13:40:35.159Z,102121.09
2023-02-11T13:42:31.291Z,102123.63
2023-02-11T13:44:30.978Z,102119.50
2023-02-11T13:46:30.680Z,102116.03
2023-02-11T13:48:30.916Z,102111.72
2023-02-11T13:50:28.246Z,102122.03
2023-02-11T13:52:28.630Z,102124.63
2023-02-11T13:54:35.609Z,102119.34
2023-02-11T13:56:34.113Z,102123.72
2023-02-11T13:58:40.017Z,102114.16
2023-02-11T14:00:52.100Z,102115.94
2023-02-11T14:03:00.015Z,102121.19
2023-02-11T14:05:39.888Z,102127.25
2023-02-11T14:07:50.729Z,102119.41
2023-02-11T14:09:45.732Z,102129.72
2023-02-11T14:11:50.998Z,102136.81
2023-02-11T14:14:17.840Z,102132.50
2023-02-11T14:16:35.336Z,102126.31
2023-02-11T14:19:03.537Z,102133.34
2023-02-11T14:21:14.862Z,102145.41
2023-02-11T14:23:27.300Z,102132.75
2023-02-11T14:25:26.718Z,102128.28
2023-02-11T14:27:31.210Z,102131.91
2023-02-11T14:29:35.391Z,102131.16
2023-02-11T14:31:38.993Z,102119.06
2023-02-11T14:34:07.444Z,102126.00
2023-02-11T14:36:16.516Z,102124.97
2023-02-11T14:38:22.977Z,102131.16
2023-02-11T14:40:27.324Z,102133.59
2023-02-11T14:42:26.953Z,102134.63
2023-02-11T14:44:24.964Z,102142.53
2023-02-11T14:46:22.585Z,102130.38
2023-02-11T14:48:19.754Z,102124.22
2023-02-11T14:50:28.793Z,102126.66
2023-02-11T14:52:31.483Z,102135.56
2023-02-11T14:54:30.325Z,102143.31
2023-02-11T14:56:27.999Z,102149.41
2023-02-11T14:58:25.698Z,102141.56
2023-02-11T15:00:24.801Z,102154.63
2023-02-11T15:02:27.521Z,102156.22
2023-02-11T15:04:28.005Z,102152.63
2023-02-11T15:06:33.283Z,102158.78
2023-02-11T15:08:33.191Z,102149.22
2023-02-11T15:10:35.819Z,102150.06
2023-02-11T15:12:31.715Z,102170.25
2023-02-11T15:14:29.853Z,102167.56
2023-02-11T15:16:28.204Z,102166.63
2023-02-11T15:18:28.303Z,102177.09
2023-02-11T15:20:28.668Z,102170.66
2023-02-11T15:22:26.441Z,102173.38
2023-02-11T15:24:29.612Z,102179.47
2023-02-11T15:26:24.957Z,102177.94
2023-02-11T15:28:26.659Z,102181.25
2023-02-11T15:30:29.191Z,102176.94
2023-02-11T15:32:26.473Z,102186.66
2023-02-11T15:34:21.599Z,102187.75
2023-02-11T15:36:17.873Z,102196.78
2023-02-11T15:38:15.582Z,102193.06
2023-02-11T15:40:18.944Z,102187.19
2023-02-11T15:42:28.277Z,102196.63
2023-02-11T15:44:34.567Z,102196.72
2023-02-11T15:46:39.470Z,102201.25
2023-02-11T15:48:40.518Z,102202.28
2023-02-11T15:50:40.494Z,102206.94
2023-02-11T15:52:36.743Z,102206.09
2023-02-11T15:54:34.321Z,102194.75
2023-02-11T15:56:34.413Z,102198.16
2023-02-11T15:58:29.621Z,102196.38
2023-02-11T16:00:27.689Z,102202.72
2023-02-11T16:02:28.469Z,102194.00
2023-02-11T16:04:27.208Z,102207.03
2023-02-11T16:06:24.659Z,102194.69
2023-02-11T16:08:29.745Z,102202.22
2023-02-11T16:10:30.718Z,102206.69
2023-02-11T16:12:30.164Z,102205.84
2023-02-11T16:14:32.436Z,102201.63
2023-02-11T16:16:30.738Z,102206.53
2023-02-11T16:18:38.710Z,102214.31
2023-02-11T16:20:34.967Z,102213.44
2023-02-11T16:22:38.128Z,102216.00
2023-02-11T16:24:35.941Z,102233.31
2023-02-11T16:26:39.246Z,102228.75
2023-02-11T16:28:38.459Z,102224.94
2023-02-11T16:30:37.455Z,102212.63
2023-02-11T16:32:33.073Z,102214.44
2023-02-11T16:34:36.630Z,102223.75
2023-02-11T16:36:32.129Z,102224.44
2023-02-11T16:38:29.426Z,102230.63
2023-02-11T16:40:25.092Z,102228.94
2023-02-11T16:42:20.770Z,102229.97
2023-02-11T16:44:18.705Z,102229.31
2023-02-11T16:48:41.085Z,102226.69
2023-02-11T16:50:36.791Z,102240.06
2023-02-11T16:52:33.244Z,102237.44
2023-02-11T16:54:32.728Z,102227.91
2023-02-11T16:56:28.682Z,102236.69
2023-02-11T16:58:23.995Z,102248.97
2023-02-11T17:00:26.749Z,102250.47
2023-02-11T17:02:29.545Z,102254.97
2023-02-11T17:04:30.206Z,102259.09
2023-02-11T17:06:26.934Z,102270.91
2023-02-11T17:08:22.963Z,102276.47
2023-02-11T17:10:19.714Z,102274.63
2023-02-11T17:12:15.152Z,102270.22
2023-02-11T17:14:10.732Z,102271.13
2023-02-11T17:16:08.489Z,102276.47
2023-02-11T17:18:04.061Z,102271.31
2023-02-11T17:19:59.677Z,102290.50
2023-02-11T17:21:57.448Z,102296.50
2023-02-11T17:23:52.351Z,102290.69
2023-02-11T17:25:47.687Z,102301.84
2023-02-11T17:27:42.672Z,102286.13
2023-02-11T17:29:38.068Z,102298.13
2023-02-11T17:31:35.953Z,102301.34
2023-02-11T17:33:31.096Z,102300.50
2023-02-11T17:35:26.425Z,102299.22
2023-02-11T17:37:21.385Z,102309.13
2023-02-11T17:39:16.777Z,102298.72
2023-02-11T17:41:12.807Z,102312.69
2023-02-11T17:43:08.097Z,102309.53
2023-02-11T17:45:03.034Z,102308.19
2023-02-11T17:47:01.014Z,102318.72
2023-02-11T17:48:55.925Z,102309.16
2023-02-11T17:50:50.869Z,102316.09
2023-02-11T17:52:48.510Z,102318.13
2023-02-11T17:54:43.480Z,102315.50
2023-02-11T17:56:39.586Z,102325.81
2023-02-11T17:58:34.620Z,102338.69
2023-02-11T18:00:30.859Z,102329.13
2023-02-11T18:02:28.786Z,102334.22
2023-02-11T18:04:23.827Z,102331.81
2023-02-11T18:06:19.452Z,102340.47
2023-02-11T18:08:14.428Z,102337.16
2023-02-11T18:10:11.612Z,102334.53
2023-02-11T18:12:06.952Z,102350.97
2023-02-11T18:14:03.138Z,102349.78
2023-02-11T18:15:58.130Z,102358.50
2023-02-11T18:17:55.639Z,102352.22
2023-02-11T18:19:51.322Z,102364.41
2023-02-11T18:21:48.828Z,102356.47
2023-02-11T18:23:44.867Z,102359.84
2023-02-11T18:25:44.326Z,102359.63
2023-02-11T18:27:39.953Z,102367.31
2023-02-11T18:29:35.608Z,102376.19
2023-02-11T18:31:31.470Z,102381.25
2023-02-11T18:33:30.551Z,102377.03
2023-02-11T18:35:26.122Z,102375.56
2023-02-11T18:37:21.402Z,102379.38
2023-02-11T18:39:16.425Z,102379.97
2023-02-11T18:41:11.883Z,102383.50
2023-02-11T18:43:07.243Z,102390.16
2023-02-11T18:45:02.884Z,102399.00
2023-02-11T18:46:58.111Z,102404.09
2023-02-11T18:48:56.437Z,102411.47
2023-02-11T18:50:57.162Z,102411.34
2023-02-11T18:52:52.532Z,102416.75
2023-02-11T18:54:49.317Z,102412.88
2023-02-11T18:56:44.622Z,102419.91
2023-02-11T18:58:40.376Z,102418.97
2023-02-11T19:00:36.352Z,102426.91
2023-02-11T19:02:31.347Z,102415.81
2023-02-11T19:04:29.527Z,102420.75
2023-02-11T19:06:27.038Z,102418.13
2023-02-11T19:08:22.294Z,102421.44
2023-02-11T19:10:17.502Z,102423.13
2023-02-11T19:12:12.789Z,102437.59
2023-02-11T19:14:10.217Z,102442.84
2023-02-11T19:16:11.302Z,102429.84
2023-02-11T19:18:07.321Z,102434.03
2023-02-11T19:20:06.043Z,102440.56
2023-02-11T19:22:02.552Z,102432.84
2023-02-11T19:23:57.494Z,102434.53
2023-02-11T19:25:52.993Z,102436.31
2023-02-11T19:27:48.676Z,102443.16
2023-02-11T19:29:43.761Z,102458.66
2023-02-11T19:31:39.592Z,102457.28
2023-02-11T19:33:34.697Z,102460.81
2023-02-11T19:35:32.300Z,102461.75
2023-02-11T19:37:27.594Z,102457.22
2023-02-11T19:39:24.062Z,102457.81
2023-02-11T19:41:22.222Z,102453.56
2023-02-11T19:43:17.147Z,102450.88
2023-02-11T19:45:13.069Z,102459.59
2023-02-11T19:47:10.318Z,102461.34
2023-02-11T19:49:06.830Z,102462.50
2023-02-11T19:51:13.048Z,102464.22
2023-02-11T19:53:08.552Z,102461.44
2023-02-11T19:55:03.837Z,102458.03
2023-02-11T19:57:00.303Z,102462.63
2023-02-11T19:58:55.165Z,102456.84
2023-02-11T20:00:50.168Z,102464.69
2023-02-11T20:02:47.142Z,102469.00
2023-02-11T20:04:42.336Z,102468.19
2023-02-11T20:06:40.223Z,102470.81
2023-02-11T20:08:35.820Z,102471.41
2023-02-11T20:10:30.889Z,102470.47
2023-02-11T20:12:26.155Z,102480.09
2023-02-11T20:14:21.158Z,102482.81
2023-02-11T20:16:19.481Z,102492.38
2023-02-11T20:18:14.860Z,102492.44
2023-02-11T20:20:11.015Z,102491.34
2023-02-11T20:22:08.578Z,102484.50
2023-02-11T20:24:04.101Z,102494.75
2023-02-11T20:25:59.037Z,102489.28
2023-02-11T20:27:57.345Z,102492.81
2023-02-11T20:29:52.792Z,102485.66
2023-02-11T20:31:47.920Z,102493.75
2023-02-11T20:33:44.444Z,102487.75
2023-02-11T20:35:40.333Z,102492.06
2023-02-11T20:37:38.779Z,102503.53
2023-02-11T20:39:35.464Z,102503.84
2023-02-11T20:41:34.365Z,102500.84
2023-02-11T20:43:29.914Z,102511.25
2023-02-11T20:45:25.122Z,102520.88
2023-02-11T20:47:20.755Z,102525.22
2023-02-11T20:49:18.896Z,102529.38
2023-02-11T20:51:16.419Z,102522.34
2023-02-11T20:53:14.325Z,102520.56
2023-02-11T20:55:10.295Z,102530.38
2023-02-11T20:57:05.633Z,102523.88
2023-02-11T20:59:03.832Z,102528.03
2023-02-11T21:00:59.242Z,102530.72
2023-02-11T21:02:54.595Z,102525.75
2023-02-11T21:04:52.961Z,102530.13
2023-02-11T21:06:52.829Z,102538.09
2023-02-11T21:08:51.111Z,102528.59
2023-02-11T21:10:46.482Z,102533.22
2023-02-11T21:12:42.118Z,102537.38
2023-02-11T21:14:37.303Z,102532.22
2023-02-11T21:16:34.994Z,102539.69
2023-02-11T21:18:29.946Z,102544.88
2023-02-11T21:20:27.400Z,102546.31
2023-02-11T21:22:22.681Z,102553.28
2023-02-11T21:24:26.010Z,102560.13
2023-02-11T21:26:21.595Z,102558.13
2023-02-11T21:28:18.964Z,102567.53
2023-02-11T21:33:00.390Z,102574.25
2023-02-11T21:35:01.267Z,102577.72
2023-02-11T21:36:57.848Z,102580.09
2023-02-11T21:38:57.886Z,102596.75
2023-02-11T21:40:56.194Z,102600.91
2023-02-11T21:42:51.796Z,102596.59
2023-02-11T21:44:49.068Z,102601.78
2023-02-11T21:46:45.702Z,102603.09
2023-02-11T21:48:41.512Z,102596.22
2023-02-11T21:50:41.392Z,102601.47
2023-02-11T21:52:36.685Z,102600.59
2023-02-11T21:54:32.266Z,102600.53
2023-02-11T21:56:35.376Z,102607.25
2023-02-11T21:58:30.430Z,102605.16
2023-02-11T22:00:26.119Z,102605.63
2023-02-11T22:02:21.153Z,102605.25
2023-02-11T22:04:19.250Z,102608.25
2023-02-11T22:06:16.915Z,102606.94
2023-02-11T22:08:14.678Z,102614.66
2023-02-11T22:10:11.123Z,102611.03
2023-02-11T22:12:10.583Z,102616.44
2023-02-11T22:14:05.940Z,102612.78
2023-02-11T22:16:02.848Z,102615.72
2023-02-11T22:17:57.854Z,102623.06
2023-02-11T22:19:53.238Z,102627.59
2023-02-11T22:21:48.171Z,102622.00
2023-02-11T22:23:47.869Z,102631.94
2023-02-11T22:25:57.706Z,102634.47
2023-02-11T22:27:55.807Z,102644.25
2023-02-11T22:29:53.054Z,102654.16
2023-02-11T22:31:48.384Z,102654.47
2023-02-11T22:33:45.922Z,102657.88
2023-02-11T22:35:40.816Z,102660.63
2023-02-11T22:37:36.116Z,102667.25
2023-02-11T22:39:34.189Z,102664.19
2023-02-11T22:41:30.370Z,102661.69
2023-02-11T22:43:28.334Z,102665.63
2023-02-11T22:45:23.407Z,102670.63
2023-02-11T22:47:18.690Z,102681.22